createdAt,value
2022-10-06T00:03:27.032Z,3.72
2022-10-06T00:08:31.472Z,4.03
2022-10-06T00:13:35.351Z,3.55
2022-10-06T00:18:37.571Z,3.03
2022-10-06T00:23:39.761Z,2.83
2022-10-06T00:28:48.736Z,3.28
2022-10-06T00:33:51.149Z,3.15
2022-10-06T00:38:53.601Z,3.55
2022-10-06T00:43:57.763Z,3.78
2022-10-06T00:49:07.423Z,3.53
2022-10-06T00:54:10.201Z,2.75
2022-10-06T00:59:14.505Z,2.70
2022-10-06T01:04:17.966Z,3.55
2022-10-06T01:14:23.340Z,2.95
2022-10-06T01:19:35.911Z,2.80
2022-10-06T01:24:38.393Z,2.87
2022-10-06T01:29:44.782Z,3.40
2022-10-06T01:35:23.467Z,2.92
2022-10-06T01:40:29.208Z,3.28
2022-10-06T01:45:36.155Z,3.45
2022-10-06T01:50:40.709Z,3.15
2022-10-06T01:55:43.374Z,3.00
2022-10-06T02:00:48.105Z,2.80
2022-10-06T02:05:50.654Z,3.10
2022-10-06T02:10:53.343Z,2.90
2022-10-06T02:16:00.128Z,3.00
2022-10-06T02:21:03.311Z,2.83
2022-10-06T02:26:06.638Z,2.67
2022-10-06T02:31:13.683Z,2.55
2022-10-06T02:36:17.008Z,3.10
2022-10-06T02:41:19.742Z,3.05
2022-10-06T02:46:24.197Z,2.70
2022-10-06T02:51:31.611Z,3.10
2022-10-06T02:56:35.802Z,2.67
2022-10-06T03:01:38.220Z,2.80
2022-10-06T03:06:46.734Z,3.20
2022-10-06T03:11:58.645Z,3.25
2022-10-06T03:17:10.034Z,3.58
2022-10-06T03:22:16.868Z,3.30
2022-10-06T03:27:25.750Z,3.10
2022-10-06T03:32:31.848Z,3.13
2022-10-06T03:37:34.527Z,3.47
2022-10-06T03:42:37.061Z,3.00
2022-10-06T03:47:40.211Z,3.10
2022-10-06T03:52:43.017Z,3.22
2022-10-06T03:57:46.177Z,2.92
2022-10-06T04:02:49.940Z,2.85
2022-10-06T04:07:55.151Z,3.45
2022-10-06T04:12:58.847Z,3.88
2022-10-06T04:18:01.211Z,3.58
2022-10-06T04:23:04.531Z,3.75
2022-10-06T04:28:07.483Z,3.60
2022-10-06T04:33:09.829Z,3.90
2022-10-06T04:38:14.388Z,3.80
2022-10-06T04:43:17.308Z,2.90
2022-10-06T04:48:19.745Z,2.80
2022-10-06T04:53:22.717Z,3.13
2022-10-06T04:58:27.539Z,3.42
2022-10-06T05:03:31.333Z,3.58
2022-10-06T05:08:34.774Z,3.55
2022-10-06T05:13:38.519Z,3.17
2022-10-06T05:18:42.189Z,3.60
2022-10-06T05:23:45.870Z,3.15
2022-10-06T05:28:48.451Z,3.22
2022-10-06T05:38:55.061Z,3.83
2022-10-06T05:43:58.630Z,4.03
2022-10-06T05:49:12.996Z,4.35
2022-10-06T05:54:37.208Z,3.13
2022-10-06T05:59:43.291Z,4.05
2022-10-06T06:04:45.653Z,3.40
2022-10-06T06:09:49.144Z,3.67
2022-10-06T06:15:10.215Z,3.20
2022-10-06T06:20:17.485Z,3.10
2022-10-06T06:25:19.765Z,2.83
2022-10-06T06:30:22.915Z,3.17
2022-10-06T06:40:30.145Z,2.58
2022-10-06T06:45:32.642Z,2.85
2022-10-06T06:50:41.164Z,2.40
2022-10-06T06:55:51.174Z,2.72
2022-10-06T07:01:13.829Z,2.55
2022-10-06T07:06:16.890Z,3.80
2022-10-06T07:11:21.839Z,4.63
2022-10-06T07:16:44.154Z,5.63
2022-10-06T07:22:26.036Z,3.95
2022-10-06T07:27:31.403Z,3.40
2022-10-06T07:32:40.945Z,3.03
2022-10-06T07:37:51.290Z,2.63
2022-10-06T07:42:55.648Z,2.42
2022-10-06T07:48:18.879Z,1.95
2022-10-06T07:53:28.089Z,2.42
2022-10-06T07:58:51.280Z,2.67
2022-10-06T08:03:53.735Z,3.30
2022-10-06T08:08:56.757Z,3.50
2022-10-06T08:14:35.567Z,3.75
2022-10-06T08:20:05.870Z,2.55
2022-10-06T08:25:10.308Z,1.83
2022-10-06T08:30:16.376Z,1.50
2022-10-06T08:35:18.838Z,1.30
2022-10-06T08:52:55.368Z,0.90
2022-10-06T09:11:28.898Z,1.13
2022-10-06T09:23:54.173Z,0.90
2022-10-06T09:29:31.519Z,0.55
2022-10-06T09:34:47.049Z,0.73
2022-10-06T09:39:59.288Z,0.52
2022-10-06T09:51:18.643Z,0.90
2022-10-06T10:02:31.826Z,0.70
2022-10-06T10:07:44.809Z,0.90
2022-10-06T10:31:06.169Z,0.90
2022-10-06T10:37:25.231Z,1.02
2022-10-06T10:43:38.422Z,1.00
2022-10-06T10:50:19.921Z,0.90
2022-10-06T11:02:41.285Z,1.80
2022-10-06T11:08:14.948Z,2.92
2022-10-06T11:13:31.347Z,1.38
2022-10-06T12:24:25.651Z,1.10
2022-10-06T12:36:03.061Z,0.90
2022-10-06T12:53:06.052Z,2.05
2022-10-06T12:58:18.025Z,1.80
2022-10-06T13:04:05.686Z,1.33
2022-10-06T13:15:43.797Z,3.80
2022-10-06T13:27:40.818Z,2.63
2022-10-06T13:32:43.223Z,2.70
2022-10-06T13:37:47.633Z,2.83
2022-10-06T13:42:50.323Z,1.80
2022-10-06T13:48:16.602Z,2.45
2022-10-06T13:53:23.836Z,1.80
2022-10-06T13:58:27.955Z,2.25
2022-10-06T14:09:02.023Z,8.32
2022-10-06T14:14:06.483Z,6.95
2022-10-06T14:19:39.080Z,7.38
2022-10-06T14:24:50.912Z,4.60
2022-10-06T14:29:55.845Z,2.55
2022-10-06T14:34:59.182Z,2.00
2022-10-06T14:40:02.031Z,1.55
2022-10-06T14:45:05.166Z,1.20
2022-10-06T14:50:07.772Z,1.30
2022-10-06T14:55:10.415Z,1.17
2022-10-06T15:00:13.757Z,1.70
2022-10-06T15:05:16.135Z,3.00
2022-10-06T15:10:18.485Z,2.90
2022-10-06T15:15:20.764Z,2.97
2022-10-06T15:20:22.988Z,2.23
2022-10-06T15:25:44.069Z,2.20
2022-10-06T15:30:51.420Z,2.40
2022-10-06T15:36:19.160Z,3.30
2022-10-06T15:41:22.313Z,8.27
2022-10-06T15:46:35.237Z,8.68
2022-10-06T15:51:40.553Z,6.07
2022-10-06T15:56:42.903Z,3.70
2022-10-06T16:01:46.982Z,2.93
2022-10-06T16:06:50.834Z,3.03
2022-10-06T16:11:54.089Z,3.53
2022-10-06T16:17:00.059Z,3.92
2022-10-06T16:22:02.638Z,4.03
2022-10-06T16:27:05.648Z,5.47
2022-10-06T16:32:07.992Z,28.70
2022-10-06T16:37:10.313Z,62.73
2022-10-06T16:42:12.737Z,52.63
2022-10-06T16:47:15.164Z,49.47
2022-10-06T16:52:17.632Z,42.95
2022-10-06T16:57:19.946Z,39.70
2022-10-06T17:02:22.216Z,42.17
2022-10-06T17:07:24.472Z,54.17
2022-10-06T17:12:26.647Z,37.55
2022-10-06T17:17:28.803Z,43.25
2022-10-06T17:22:30.975Z,63.92
2022-10-06T17:27:37.166Z,56.70
2022-10-06T17:32:44.321Z,62.72
2022-10-06T17:37:46.622Z,123.47
2022-10-06T17:42:48.839Z,113.13
2022-10-06T17:47:51.896Z,93.32
2022-10-06T17:52:54.248Z,89.25
2022-10-06T17:57:58.956Z,88.13
2022-10-06T18:03:04.527Z,78.88
2022-10-06T18:08:08.953Z,62.83
2022-10-06T18:13:11.172Z,52.78
2022-10-06T18:18:13.454Z,58.20
2022-10-06T18:23:15.687Z,51.90
2022-10-06T18:28:18.197Z,31.27
2022-10-06T18:36:09.126Z,20.67
2022-10-06T18:38:44.636Z,23.95
2022-10-06T18:43:47.269Z,28.20
2022-10-06T18:48:57.660Z,18.85
2022-10-06T18:54:08.562Z,14.60
2022-10-06T18:59:16.626Z,27.80
2022-10-06T19:04:20.394Z,27.02
2022-10-06T19:09:24.188Z,27.15
2022-10-06T19:14:41.700Z,23.52
2022-10-06T19:19:48.923Z,25.38
2022-10-06T19:25:13.244Z,25.85
2022-10-06T19:48:25.829Z,18.95
2022-10-06T20:03:08.214Z,25.30
2022-10-06T20:06:25.399Z,18.38
2022-10-06T20:24:23.288Z,37.88
2022-10-06T20:29:29.568Z,44.35
2022-10-06T20:53:52.661Z,23.77
2022-10-06T20:59:02.940Z,24.17
2022-10-06T21:04:06.351Z,24.80
2022-10-06T21:15:55.666Z,33.28
2022-10-06T21:21:04.888Z,26.67
2022-10-06T21:26:08.636Z,22.02
2022-10-06T21:36:22.594Z,17.98
2022-10-06T21:41:30.330Z,15.45
2022-10-06T21:46:40.124Z,18.63
2022-10-06T21:51:45.770Z,20.60
2022-10-06T21:56:49.317Z,20.27
2022-10-06T22:01:51.690Z,21.43
2022-10-06T22:06:54.168Z,18.42
2022-10-06T22:11:56.608Z,18.08
2022-10-06T22:17:01.662Z,14.65
2022-10-06T22:22:03.990Z,12.05
2022-10-06T22:27:06.358Z,15.52
2022-10-06T22:32:08.703Z,22.63
2022-10-06T22:37:10.959Z,16.10
2022-10-06T22:42:13.147Z,28.10
2022-10-06T22:47:17.620Z,20.13
2022-10-06T22:52:20.323Z,11.80
2022-10-06T22:57:22.583Z,12.43
2022-10-06T23:02:24.795Z,12.02
2022-10-06T23:07:27.016Z,11.18
2022-10-06T23:12:29.178Z,11.13
2022-10-06T23:17:31.446Z,12.57
2022-10-06T23:22:33.797Z,14.15
2022-10-06T23:27:36.639Z,13.38
2022-10-06T23:32:40.784Z,11.93
2022-10-06T23:37:43.333Z,12.63
2022-10-06T23:42:45.823Z,14.17
2022-10-06T23:47:48.032Z,13.25
2022-10-06T23:52:50.176Z,13.23
2022-10-06T23:57:52.596Z,14.15
